createdAt,value
2019-04-07T00:01:48.262Z,7.93
2019-04-07T00:04:17.589Z,8.27
2019-04-07T00:06:47.619Z,7.23
2019-04-07T00:09:17.587Z,7.50
2019-04-07T00:11:46.993Z,8.30
2019-04-07T00:14:18.700Z,7.90
2019-04-07T00:16:48.329Z,8.03
2019-04-07T00:19:18.128Z,7.70
2019-04-07T00:21:47.943Z,6.93
2019-04-07T00:24:17.295Z,8.07
2019-04-07T00:26:46.600Z,7.87
2019-04-07T00:29:15.897Z,7.33
2019-04-07T00:31:45.220Z,7.50
2019-04-07T00:34:14.523Z,7.67
2019-04-07T00:36:43.853Z,7.87
2019-04-07T00:39:13.219Z,7.67
2019-04-07T00:41:42.939Z,7.80
2019-04-07T00:44:12.527Z,7.57
2019-04-07T00:46:42.248Z,8.03
2019-04-07T00:49:11.630Z,7.87
2019-04-07T00:51:41.088Z,7.60
2019-04-07T00:54:10.386Z,8.07
2019-04-07T01:00:13.104Z,7.57
2019-04-07T01:02:42.940Z,8.13
2019-04-07T01:05:12.713Z,8.57
2019-04-07T01:07:51.288Z,8.60
2019-04-07T01:10:20.561Z,8.60
2019-04-07T01:12:50.148Z,8.27
2019-04-07T01:15:19.776Z,8.00
2019-04-07T01:17:49.866Z,8.63
2019-04-07T01:20:19.581Z,9.07
2019-04-07T01:22:49.490Z,8.90
2019-04-07T01:25:19.418Z,8.67
2019-04-07T01:27:49.123Z,8.17
2019-04-07T01:30:19.201Z,8.50
2019-04-07T01:32:49.106Z,9.37
2019-04-07T01:35:18.423Z,8.77
2019-04-07T01:37:47.758Z,8.43
2019-04-07T01:40:17.702Z,9.20
2019-04-07T01:43:10.680Z,8.97
2019-04-07T01:45:57.639Z,9.13
2019-04-07T01:48:45.853Z,8.30
2019-04-07T01:51:37.525Z,9.73
2019-04-07T01:54:24.975Z,9.40
2019-04-07T01:57:02.341Z,9.57
2019-04-07T01:59:56.242Z,9.43
2019-04-07T02:02:44.508Z,9.73
2019-04-07T02:05:39.176Z,9.40
2019-04-07T02:08:18.954Z,10.30
2019-04-07T02:11:08.692Z,9.87
2019-04-07T02:13:48.296Z,8.97
2019-04-07T02:16:39.921Z,9.80
2019-04-07T02:19:21.944Z,9.20
2019-04-07T02:22:06.951Z,10.27
2019-04-07T02:24:47.643Z,10.40
2019-04-07T02:27:44.967Z,10.30
2019-04-07T02:30:33.053Z,10.90
2019-04-07T02:33:22.490Z,10.40
2019-04-07T02:36:15.608Z,11.37
2019-04-07T02:38:40.331Z,11.27
2019-04-07T02:41:29.183Z,10.97
2019-04-07T02:44:13.522Z,11.70
2019-04-07T02:47:00.870Z,12.00
2019-04-07T02:49:55.899Z,12.60
2019-04-07T02:52:47.357Z,12.63
2019-04-07T02:55:42.273Z,12.37
2019-04-07T02:58:33.464Z,12.27
2019-04-07T03:01:22.163Z,12.40
2019-04-07T03:04:23.110Z,13.17
2019-04-07T03:07:16.298Z,13.50
2019-04-07T03:10:07.697Z,13.67
2019-04-07T03:12:55.926Z,12.77
2019-04-07T03:15:42.242Z,13.23
2019-04-07T03:18:31.547Z,13.53
2019-04-07T03:21:15.741Z,13.43
2019-04-07T03:23:55.373Z,14.00
2019-04-07T03:26:42.669Z,13.63
2019-04-07T03:29:33.923Z,15.37
2019-04-07T03:32:24.635Z,14.83
2019-04-07T03:35:25.108Z,13.63
2019-04-07T03:38:23.165Z,14.80
2019-04-07T03:40:56.958Z,13.73
2019-04-07T03:43:47.956Z,15.57
2019-04-07T03:46:36.500Z,15.30
2019-04-07T03:49:20.865Z,15.07
2019-04-07T03:52:17.294Z,16.07
2019-04-07T03:55:24.627Z,15.90
2019-04-07T03:58:25.893Z,16.27
2019-04-07T04:01:19.067Z,15.60
2019-04-07T04:03:56.603Z,16.53
2019-04-07T04:07:17.809Z,16.37
2019-04-07T04:09:45.478Z,15.90
2019-04-07T04:12:27.691Z,15.40
2019-04-07T04:15:04.655Z,16.40
2019-04-07T04:17:34.665Z,16.67
2019-04-07T04:20:04.311Z,16.43
2019-04-07T04:22:33.655Z,15.90
2019-04-07T04:25:03.059Z,16.37
2019-04-07T04:27:33.189Z,16.50
2019-04-07T04:30:03.067Z,17.63
2019-04-07T04:32:32.881Z,15.43
2019-04-07T04:35:03.174Z,15.63
2019-04-07T04:37:40.468Z,16.30
2019-04-07T04:40:03.926Z,16.37
2019-04-07T04:42:33.951Z,16.17
2019-04-07T04:45:04.275Z,16.63
2019-04-07T04:47:33.988Z,15.93
2019-04-07T04:50:03.935Z,17.37
2019-04-07T04:52:33.271Z,16.80
2019-04-07T04:55:02.595Z,16.47
2019-04-07T04:57:32.135Z,15.73
2019-04-07T05:00:01.920Z,17.00
2019-04-07T05:02:31.470Z,16.53
2019-04-07T05:05:02.408Z,16.10
2019-04-07T05:07:32.002Z,16.07
2019-04-07T05:10:01.552Z,16.77
2019-04-07T05:12:31.344Z,16.23
2019-04-07T05:15:01.610Z,17.73
2019-04-07T05:17:31.133Z,17.87
2019-04-07T05:20:00.472Z,16.50
2019-04-07T05:22:30.621Z,16.33
2019-04-07T05:24:59.994Z,16.30
2019-04-07T05:27:29.373Z,15.93
2019-04-07T05:29:58.617Z,16.87
2019-04-07T05:32:28.573Z,15.97
2019-04-07T05:34:57.936Z,16.93
2019-04-07T05:37:27.241Z,17.03
2019-04-07T05:39:56.640Z,16.73
2019-04-07T05:42:25.937Z,16.80
2019-04-07T05:44:55.997Z,17.23
2019-04-07T05:47:25.526Z,17.70
2019-04-07T05:49:57.463Z,16.50
2019-04-07T05:52:25.814Z,17.40
2019-04-07T05:54:56.168Z,16.90
2019-04-07T05:57:26.185Z,16.53
2019-04-07T05:59:55.947Z,16.90
2019-04-07T06:02:25.605Z,16.57
2019-04-07T06:04:54.907Z,17.27
2019-04-07T06:07:28.786Z,16.33
2019-04-07T06:09:55.717Z,16.80
2019-04-07T06:12:25.033Z,17.37
2019-04-07T06:14:54.339Z,16.63
2019-04-07T06:17:26.379Z,18.03
2019-04-07T06:19:54.734Z,18.10
2019-04-07T06:22:24.777Z,17.37
2019-04-07T06:24:54.029Z,17.77
2019-04-07T06:27:23.988Z,16.77
2019-04-07T06:29:57.188Z,17.20
2019-04-07T06:32:25.465Z,17.03
2019-04-07T06:34:55.163Z,17.90
2019-04-07T06:37:28.842Z,18.80
2019-04-07T06:39:55.790Z,17.80
2019-04-07T06:42:25.150Z,17.77
2019-04-07T06:44:55.329Z,17.40
2019-04-07T06:47:32.874Z,18.93
2019-04-07T06:50:20.814Z,19.03
2019-04-07T06:53:03.211Z,19.60
2019-04-07T06:55:59.032Z,17.87
2019-04-07T06:58:50.440Z,18.73
2019-04-07T07:01:41.706Z,19.23
2019-04-07T07:07:50.995Z,19.70
2019-04-07T07:10:41.135Z,19.90
2019-04-07T07:13:29.227Z,19.60
2019-04-07T07:16:16.951Z,18.40
2019-04-07T07:18:56.082Z,19.10
2019-04-07T07:21:54.384Z,19.77
2019-04-07T07:24:25.682Z,18.03
2019-04-07T07:26:57.759Z,18.47
2019-04-07T07:29:26.864Z,18.80
2019-04-07T07:32:01.947Z,18.97
2019-04-07T07:34:27.384Z,19.87
2019-04-07T07:36:58.052Z,18.10
2019-04-07T07:39:28.364Z,19.17
2019-04-07T07:41:58.413Z,18.93
2019-04-07T07:44:27.847Z,19.27
2019-04-07T07:46:58.096Z,20.63
2019-04-07T07:52:59.233Z,20.13
2019-04-07T07:55:33.822Z,19.73
2019-04-07T07:57:59.606Z,19.20
2019-04-07T08:00:28.925Z,20.47
2019-04-07T08:02:58.294Z,20.77
2019-04-07T08:05:32.737Z,20.10
2019-04-07T08:07:59.345Z,20.87
2019-04-07T08:10:29.112Z,19.63
2019-04-07T08:12:59.522Z,19.73
2019-04-07T08:15:32.228Z,18.77
2019-04-07T08:18:03.372Z,19.13
2019-04-07T08:20:31.853Z,19.60
2019-04-07T08:23:02.615Z,19.97
2019-04-07T08:25:32.368Z,19.27
2019-04-07T08:28:03.602Z,19.97
2019-04-07T08:30:32.910Z,20.53
2019-04-07T08:33:03.414Z,20.00
2019-04-07T08:35:35.672Z,20.70
2019-04-07T08:38:04.595Z,20.30
2019-04-07T08:40:36.456Z,21.17
2019-04-07T08:43:05.054Z,21.47
2019-04-07T08:45:35.049Z,22.57
2019-04-07T08:48:05.156Z,21.80
2019-04-07T08:50:37.449Z,21.47
2019-04-07T08:53:14.115Z,22.03
2019-04-07T08:55:54.355Z,21.70
2019-04-07T08:58:25.857Z,22.80
2019-04-07T09:00:53.951Z,22.57
2019-04-07T09:03:23.448Z,23.97
2019-04-07T09:05:56.559Z,23.70
2019-04-07T09:08:24.372Z,22.20
2019-04-07T09:11:01.967Z,22.60
2019-04-07T09:13:33.887Z,22.80
2019-04-07T09:16:25.313Z,23.00
2019-04-07T09:19:12.489Z,23.07
2019-04-07T09:22:08.306Z,24.13
2019-04-07T09:24:55.332Z,23.80
2019-04-07T09:27:43.393Z,23.40
2019-04-07T09:30:44.033Z,22.83
2019-04-07T09:33:42.118Z,23.73
2019-04-07T09:36:49.954Z,23.90
2019-04-07T09:39:55.138Z,23.37
2019-04-07T09:42:29.648Z,24.63
2019-04-07T09:45:24.278Z,24.83
2019-04-07T09:48:07.753Z,24.97
2019-04-07T09:51:05.071Z,26.30
2019-04-07T09:53:41.866Z,25.77
2019-04-07T09:56:31.058Z,26.17
2019-04-07T09:59:28.527Z,25.17
2019-04-07T10:02:15.641Z,24.70
2019-04-07T10:05:02.484Z,26.57
2019-04-07T10:07:44.074Z,26.00
2019-04-07T10:10:22.663Z,26.67
2019-04-07T10:13:16.818Z,26.20
2019-04-07T10:16:14.865Z,26.53
2019-04-07T10:19:03.358Z,26.27
2019-04-07T10:21:57.440Z,25.33
2019-04-07T10:24:53.715Z,28.07
2019-04-07T10:27:40.665Z,26.57
2019-04-07T10:30:35.967Z,27.67
2019-04-07T10:33:22.734Z,27.00
2019-04-07T10:36:00.125Z,27.53
2019-04-07T10:38:48.356Z,27.20
2019-04-07T10:41:42.706Z,28.53
2019-04-07T10:44:24.975Z,29.80
2019-04-07T10:47:13.234Z,29.50
2019-04-07T10:50:05.162Z,31.27
2019-04-07T10:52:47.817Z,28.97
2019-04-07T10:55:24.425Z,29.37
2019-04-07T10:58:15.556Z,30.00
2019-04-07T11:01:02.894Z,29.43
2019-04-07T11:03:53.674Z,28.83
2019-04-07T11:06:50.174Z,29.20
2019-04-07T11:09:47.689Z,29.83
2019-04-07T11:12:48.043Z,29.00
2019-04-07T11:15:48.792Z,28.83
2019-04-07T11:22:17.587Z,28.03
2019-04-07T11:24:59.489Z,29.43
2019-04-07T11:27:48.439Z,28.53
2019-04-07T11:30:49.689Z,28.27
2019-04-07T11:33:24.833Z,29.37
2019-04-07T11:36:23.466Z,27.83
2019-04-07T11:39:12.162Z,27.97
2019-04-07T11:42:13.051Z,29.20
2019-04-07T11:44:56.119Z,26.73
2019-04-07T11:47:44.990Z,28.43
2019-04-07T11:50:23.407Z,28.27
2019-04-07T11:53:03.879Z,28.00
2019-04-07T11:56:06.226Z,29.73
2019-04-07T11:58:45.235Z,29.83
2019-04-07T12:01:43.707Z,28.87
2019-04-07T12:04:34.554Z,29.20
2019-04-07T12:07:20.308Z,28.33
2019-04-07T12:10:05.114Z,28.97
2019-04-07T12:12:53.843Z,30.00
2019-04-07T12:15:39.947Z,29.20
2019-04-07T12:18:23.449Z,32.13
2019-04-07T12:21:05.257Z,28.93
2019-04-07T12:23:41.803Z,28.33
2019-04-07T12:26:39.666Z,30.87
2019-04-07T12:29:25.489Z,30.17
2019-04-07T12:32:12.439Z,29.43
2019-04-07T12:34:59.892Z,29.77
2019-04-07T12:37:58.974Z,28.23
2019-04-07T12:40:43.122Z,30.47
2019-04-07T12:43:30.348Z,30.07
2019-04-07T12:46:10.207Z,29.50
2019-04-07T12:48:52.265Z,30.40
2019-04-07T12:51:47.222Z,31.03
2019-04-07T12:54:43.712Z,29.53
2019-04-07T12:57:36.811Z,29.27
2019-04-07T13:00:24.868Z,30.20
2019-04-07T13:03:22.394Z,29.23
2019-04-07T13:06:06.249Z,29.47
2019-04-07T13:08:58.257Z,29.47
2019-04-07T13:11:38.656Z,27.77
2019-04-07T13:14:25.725Z,28.03
2019-04-07T17:29:30.071Z,6.33
2019-04-07T17:32:01.701Z,6.20
2019-04-07T17:34:30.560Z,6.07
2019-04-07T17:37:00.818Z,6.40
2019-04-07T17:39:42.061Z,6.80
2019-04-07T17:42:13.214Z,6.67
2019-04-07T17:44:59.793Z,6.37
2019-04-07T17:47:36.714Z,6.77
2019-04-07T17:50:20.104Z,5.60
2019-04-07T17:53:06.682Z,6.23
2019-04-07T17:56:10.884Z,5.03
2019-04-07T17:59:08.743Z,4.50
2019-04-07T18:02:04.487Z,4.33
2019-04-07T18:04:53.628Z,3.87
2019-04-07T18:07:46.602Z,3.80
2019-04-07T18:10:56.013Z,4.50
2019-04-07T18:13:49.999Z,4.90
2019-04-07T18:16:46.164Z,5.40
2019-04-07T18:19:36.136Z,5.70
2019-04-07T18:22:42.921Z,7.10
2019-04-07T18:25:40.180Z,7.37
2019-04-07T18:28:32.494Z,7.33
2019-04-07T18:31:20.497Z,6.63
2019-04-07T18:34:08.698Z,8.03
2019-04-07T18:37:07.042Z,7.33
2019-04-07T18:40:02.443Z,7.83
2019-04-07T18:42:51.077Z,7.80
2019-04-07T18:45:46.558Z,7.97
2019-04-07T18:48:36.037Z,8.80
2019-04-07T18:51:19.054Z,9.23
2019-04-07T18:54:02.721Z,13.87
2019-04-07T18:56:48.071Z,12.93
2019-04-07T18:59:42.179Z,12.33
2019-04-07T19:02:38.135Z,10.63
2019-04-07T19:05:25.333Z,10.00
2019-04-07T19:08:17.483Z,9.77
2019-04-07T19:11:16.003Z,10.23
2019-04-07T19:14:33.454Z,9.30
2019-04-07T19:17:02.937Z,10.37
2019-04-07T19:19:51.207Z,10.87
2019-04-07T19:22:39.809Z,10.87
2019-04-07T19:25:21.560Z,11.23
2019-04-07T19:28:06.004Z,12.23
2019-04-07T19:30:50.122Z,11.93
2019-04-07T19:33:37.920Z,11.60
2019-04-07T19:36:32.203Z,12.30
2019-04-07T19:39:30.533Z,15.17
2019-04-07T19:42:18.641Z,15.60
2019-04-07T19:45:05.749Z,14.20
2019-04-07T19:47:54.824Z,14.30
2019-04-07T19:50:46.910Z,14.40
2019-04-07T19:53:44.303Z,14.97
2019-04-07T19:56:48.298Z,15.30
2019-04-07T19:59:39.343Z,14.73
2019-04-07T20:05:21.448Z,15.33
2019-04-07T20:08:32.335Z,16.60
2019-04-07T20:11:16.062Z,16.93
2019-04-07T20:13:56.342Z,16.53
2019-04-07T20:16:32.737Z,16.77
2019-04-07T20:19:16.666Z,16.87
2019-04-07T20:22:04.716Z,17.73
2019-04-07T20:24:49.194Z,17.57
2019-04-07T20:27:56.005Z,17.83
2019-04-07T20:30:45.614Z,17.23
2019-04-07T20:33:32.368Z,17.00
2019-04-07T20:36:17.673Z,17.37
2019-04-07T20:38:52.269Z,18.83
2019-04-07T20:41:28.269Z,19.07
2019-04-07T20:44:17.737Z,18.73
2019-04-07T20:47:26.403Z,19.00
2019-04-07T20:50:21.744Z,20.30
2019-04-07T20:53:31.092Z,19.90
2019-04-07T20:56:12.660Z,19.10
2019-04-07T20:58:59.381Z,19.27
2019-04-07T21:01:58.714Z,17.67
2019-04-07T21:04:53.522Z,17.37
2019-04-07T21:07:33.563Z,16.97
2019-04-07T21:10:37.903Z,16.60
2019-04-07T21:13:32.232Z,17.37
2019-04-07T21:16:28.272Z,16.70
2019-04-07T21:19:18.830Z,16.70
2019-04-07T21:22:00.068Z,14.73
2019-04-07T21:24:51.226Z,15.47
2019-04-07T21:27:41.513Z,14.87
2019-04-07T21:30:42.960Z,13.53
2019-04-07T21:33:28.196Z,13.10
2019-04-07T21:36:32.225Z,12.87
2019-04-07T21:39:23.109Z,12.80
2019-04-07T21:42:11.475Z,12.43
2019-04-07T21:44:59.895Z,11.90
2019-04-07T21:47:39.755Z,11.87
2019-04-07T21:50:26.946Z,12.03
2019-04-07T21:53:28.863Z,11.83
2019-04-07T21:56:23.414Z,11.60
2019-04-07T21:59:18.737Z,11.47
2019-04-07T22:02:11.451Z,12.37
2019-04-07T22:05:02.860Z,12.80
2019-04-07T22:07:44.897Z,12.50
2019-04-07T22:10:18.739Z,12.53
2019-04-07T22:12:46.185Z,13.10
2019-04-07T22:15:15.711Z,12.97
2019-04-07T22:17:45.792Z,12.87
2019-04-07T22:20:18.819Z,13.50
2019-04-07T22:22:47.128Z,12.77
2019-04-07T22:25:22.761Z,12.93
2019-04-07T22:27:54.468Z,11.70
2019-04-07T22:30:24.144Z,13.17
2019-04-07T22:32:54.133Z,11.57
2019-04-07T22:35:25.536Z,11.70
2019-04-07T22:37:54.898Z,11.37
2019-04-07T22:40:25.577Z,12.00
2019-04-07T22:42:54.896Z,12.40
2019-04-07T22:45:26.501Z,11.90
2019-04-07T22:47:55.313Z,11.50
2019-04-07T22:50:25.278Z,11.70
2019-04-07T22:52:55.359Z,12.53
2019-04-07T22:55:24.925Z,12.40
2019-04-07T22:57:56.281Z,11.90
2019-04-07T23:00:26.791Z,11.73
2019-04-07T23:02:56.437Z,12.60
2019-04-07T23:05:25.758Z,12.47
2019-04-07T23:07:55.112Z,12.23
2019-04-07T23:10:25.160Z,12.87
2019-04-07T23:12:55.234Z,12.30
2019-04-07T23:15:37.432Z,12.40
2019-04-07T23:17:57.910Z,12.47
2019-04-07T23:20:27.338Z,12.83
2019-04-07T23:22:56.713Z,12.53
2019-04-07T23:25:26.088Z,13.03
2019-04-07T23:27:58.465Z,12.63
2019-04-07T23:30:29.150Z,12.63
2019-04-07T23:32:58.516Z,12.97
2019-04-07T23:35:28.764Z,12.90
2019-04-07T23:37:58.113Z,13.03
2019-04-07T23:40:28.070Z,12.67
2019-04-07T23:42:59.491Z,12.70
2019-04-07T23:45:28.844Z,11.77
2019-04-07T23:47:58.764Z,11.93
2019-04-07T23:50:30.388Z,12.20
2019-04-07T23:53:21.419Z,12.17
2019-04-07T23:55:50.761Z,11.43
2019-04-07T23:58:20.922Z,11.60
